createdAt,value
2023-04-05T00:01:34.842Z,1.80
2023-04-05T00:04:03.818Z,1.08
2023-04-05T00:06:33.085Z,1.10
2023-04-05T00:09:04.024Z,0.85
2023-04-05T00:11:33.512Z,0.90
2023-04-05T00:14:02.577Z,1.10
2023-04-05T00:16:31.615Z,1.20
2023-04-05T00:19:02.148Z,1.33
2023-04-05T00:21:30.965Z,1.02
2023-04-05T00:23:59.674Z,1.17
2023-04-05T00:26:28.426Z,1.05
2023-04-05T00:28:59.439Z,1.40
2023-04-05T00:31:28.219Z,1.60
2023-04-05T00:33:56.956Z,2.03
2023-04-05T00:36:27.714Z,1.98
2023-04-05T00:38:56.805Z,1.95
2023-04-05T00:41:25.681Z,2.10
2023-04-05T00:43:54.410Z,1.67
2023-04-05T00:46:23.188Z,1.20
2023-04-05T00:48:52.003Z,1.20
2023-04-05T00:51:20.680Z,1.05
2023-04-05T00:53:52.860Z,1.10
2023-04-05T00:56:22.697Z,1.30
2023-04-05T00:58:53.382Z,1.10
2023-04-05T01:01:23.440Z,1.23
2023-04-05T01:03:54.881Z,1.25
2023-04-05T01:06:30.190Z,1.20
2023-04-05T01:09:02.855Z,1.10
2023-04-05T01:11:32.570Z,1.08
2023-04-05T01:14:01.502Z,1.10
2023-04-05T01:16:30.378Z,1.10
2023-04-05T01:18:59.091Z,1.30
2023-04-05T01:21:42.301Z,1.20
2023-04-05T01:24:18.503Z,1.10
2023-04-05T01:26:50.626Z,1.15
2023-04-05T01:29:43.517Z,0.90
2023-04-05T01:32:17.198Z,1.00
2023-04-05T01:34:49.757Z,0.80
2023-04-05T01:37:20.660Z,1.00
2023-04-05T01:39:50.736Z,0.77
2023-04-05T01:42:24.695Z,1.10
2023-04-05T01:44:53.540Z,0.90
2023-04-05T01:47:23.588Z,0.75
2023-04-05T01:49:52.370Z,1.00
2023-04-05T01:52:21.090Z,1.08
2023-04-05T01:54:49.822Z,1.05
2023-04-05T01:57:18.550Z,0.90
2023-04-05T01:59:47.603Z,1.20
2023-04-05T02:02:16.458Z,0.90
2023-04-05T02:04:46.558Z,1.33
2023-04-05T02:07:15.755Z,1.42
2023-04-05T02:09:44.493Z,1.10
2023-04-05T02:12:14.701Z,0.85
2023-04-05T02:14:43.365Z,1.40
2023-04-05T02:17:12.704Z,1.00
2023-04-05T02:19:41.880Z,0.93
2023-04-05T02:22:11.899Z,1.20
2023-04-05T02:24:41.405Z,1.10
2023-04-05T02:27:10.086Z,1.15
2023-04-05T02:29:39.116Z,0.82
2023-04-05T02:32:08.060Z,1.02
2023-04-05T02:34:37.101Z,1.10
2023-04-05T02:37:05.861Z,1.13
2023-04-05T02:39:36.550Z,1.00
2023-04-05T02:42:05.247Z,0.90
2023-04-05T02:44:33.886Z,1.08
2023-04-05T02:47:03.142Z,1.23
2023-04-05T02:49:34.337Z,1.17
2023-04-05T02:52:06.003Z,1.00
2023-04-05T02:54:36.725Z,1.27
2023-04-05T02:57:05.511Z,0.68
2023-04-05T02:59:45.274Z,0.98
2023-04-05T03:02:14.087Z,1.38
2023-04-05T03:04:44.955Z,1.17
2023-04-05T03:07:18.718Z,1.35
2023-04-05T03:09:51.415Z,1.30
2023-04-05T03:12:20.931Z,1.15
2023-04-05T03:14:49.739Z,1.17
2023-04-05T03:17:22.887Z,1.13
2023-04-05T03:20:00.874Z,1.10
2023-04-05T03:22:30.466Z,1.05
2023-04-05T03:25:00.794Z,1.10
2023-04-05T03:27:29.756Z,1.05
2023-04-05T03:30:24.389Z,0.93
2023-04-05T03:33:01.344Z,1.05
2023-04-05T03:35:39.157Z,1.20
2023-04-05T03:38:10.454Z,1.25
2023-04-05T03:40:46.137Z,1.50
2023-04-05T03:43:14.980Z,1.00
2023-04-05T03:45:43.692Z,1.30
2023-04-05T03:48:13.058Z,1.33
2023-04-05T03:50:41.855Z,1.40
2023-04-05T03:53:10.601Z,1.10
2023-04-05T03:55:40.826Z,1.23
2023-04-05T03:58:11.502Z,1.90
2023-04-05T04:00:40.726Z,1.58
2023-04-05T04:03:17.605Z,1.60
2023-04-05T04:05:49.422Z,1.00
2023-04-05T04:08:19.039Z,1.90
2023-04-05T04:10:47.718Z,1.40
2023-04-05T04:13:38.655Z,1.83
2023-04-05T04:16:14.328Z,1.90
2023-04-05T04:19:01.609Z,2.03
2023-04-05T04:21:36.081Z,1.83
2023-04-05T04:24:04.874Z,1.52
2023-04-05T04:26:59.443Z,1.50
2023-04-05T04:30:10.917Z,2.58
2023-04-05T04:32:55.094Z,2.58
2023-04-05T04:35:29.160Z,3.80
2023-04-05T04:38:08.072Z,3.20
2023-04-05T04:40:51.134Z,2.60
2023-04-05T04:43:27.687Z,2.45
2023-04-05T04:46:15.937Z,2.10
2023-04-05T04:48:58.686Z,1.60
2023-04-05T04:51:33.309Z,1.60
2023-04-05T04:54:02.090Z,1.40
2023-04-05T04:56:30.843Z,1.67
2023-04-05T04:59:01.476Z,1.10
2023-04-05T05:01:31.924Z,1.33
2023-04-05T05:04:00.957Z,1.42
2023-04-05T05:06:33.917Z,1.95
2023-04-05T05:09:03.028Z,2.55
2023-04-05T05:11:34.943Z,1.90
2023-04-05T05:14:04.424Z,1.63
2023-04-05T05:16:34.804Z,2.03
2023-04-05T05:19:03.892Z,1.90
2023-04-05T05:21:41.806Z,2.10
2023-04-05T05:24:10.498Z,1.75
2023-04-05T05:26:39.158Z,2.88
2023-04-05T05:29:08.004Z,1.77
2023-04-05T05:31:42.481Z,1.98
2023-04-05T05:34:11.431Z,1.33
2023-04-05T05:36:42.984Z,1.30
2023-04-05T05:39:11.801Z,1.98
2023-04-05T05:41:40.515Z,1.45
2023-04-05T05:44:09.199Z,1.88
2023-04-05T05:46:37.872Z,2.20
2023-04-05T05:49:08.021Z,1.70
2023-04-05T05:51:37.798Z,1.77
2023-04-05T05:54:06.687Z,1.38
2023-04-05T05:56:35.360Z,1.50
2023-04-05T05:59:04.304Z,1.60
2023-04-05T06:01:34.582Z,1.98
2023-04-05T06:04:03.375Z,1.42
2023-04-05T06:06:37.748Z,1.30
2023-04-05T06:09:06.627Z,1.67
2023-04-05T06:11:38.843Z,1.70
2023-04-05T06:14:09.760Z,2.25
2023-04-05T06:16:38.552Z,2.17
2023-04-05T06:19:07.285Z,2.20
2023-04-05T06:21:37.357Z,2.20
2023-04-05T06:24:06.327Z,1.65
2023-04-05T06:26:34.972Z,1.90
2023-04-05T06:29:03.770Z,1.60
2023-04-05T06:31:33.918Z,2.10
2023-04-05T06:34:02.914Z,1.60
2023-04-05T06:36:34.138Z,1.77
2023-04-05T06:39:04.696Z,1.70
2023-04-05T06:41:33.399Z,1.38
2023-04-05T06:44:02.268Z,1.90
2023-04-05T06:46:31.081Z,1.60
2023-04-05T06:49:02.994Z,1.58
2023-04-05T06:51:32.514Z,1.80
2023-04-05T06:54:01.284Z,1.90
2023-04-05T06:56:31.415Z,1.92
2023-04-05T06:59:02.333Z,2.05
2023-04-05T07:01:31.247Z,1.63
2023-04-05T07:03:59.967Z,1.75
2023-04-05T07:06:28.676Z,1.63
2023-04-05T07:08:57.344Z,1.60
2023-04-05T07:11:26.016Z,1.65
2023-04-05T07:13:56.041Z,1.70
2023-04-05T07:16:24.980Z,1.60
2023-04-05T07:18:53.781Z,1.60
2023-04-05T07:21:23.309Z,1.80
2023-04-05T07:23:53.703Z,2.28
2023-04-05T07:26:23.003Z,2.00
2023-04-05T07:28:52.490Z,1.60
2023-04-05T07:31:22.622Z,1.92
2023-04-05T07:33:51.235Z,1.40
2023-04-05T07:36:20.083Z,1.20
2023-04-05T07:38:48.788Z,1.05
2023-04-05T07:41:19.994Z,1.40
2023-04-05T07:43:48.823Z,1.35
2023-04-05T07:46:17.502Z,1.67
2023-04-05T07:48:48.648Z,1.10
2023-04-05T07:51:17.430Z,1.38
2023-04-05T07:53:46.097Z,1.08
2023-04-05T07:56:15.378Z,1.80
2023-04-05T07:58:44.335Z,1.40
2023-04-05T08:01:13.077Z,2.67
2023-04-05T08:03:41.840Z,1.10
2023-04-05T08:06:17.707Z,1.73
2023-04-05T08:08:46.670Z,1.70
2023-04-05T08:11:15.651Z,1.35
2023-04-05T08:13:44.497Z,1.40
2023-04-05T08:16:13.459Z,1.73
2023-04-05T08:18:42.191Z,1.42
2023-04-05T08:21:10.841Z,1.80
2023-04-05T08:23:41.007Z,2.10
2023-04-05T08:26:09.726Z,1.63
2023-04-05T08:28:38.384Z,2.03
2023-04-05T08:31:07.108Z,1.48
2023-04-05T08:33:35.878Z,3.67
2023-04-05T08:36:07.766Z,1.50
2023-04-05T08:38:36.882Z,1.88
2023-04-05T08:41:10.741Z,1.98
2023-04-05T08:43:46.581Z,2.17
2023-04-05T08:46:17.034Z,2.15
2023-04-05T08:48:45.802Z,2.67
2023-04-05T08:51:14.594Z,3.78
2023-04-05T08:53:43.283Z,1.85
2023-04-05T08:56:13.591Z,2.22
2023-04-05T08:58:42.646Z,2.10
2023-04-05T09:01:12.330Z,1.90
2023-04-05T09:03:42.583Z,1.88
2023-04-05T09:06:12.015Z,1.98
2023-04-05T09:08:40.842Z,1.50
2023-04-05T09:11:09.550Z,1.60
2023-04-05T09:13:39.582Z,1.65
2023-04-05T09:16:12.038Z,2.22
2023-04-05T09:18:40.878Z,1.73
2023-04-05T09:21:10.247Z,2.00
2023-04-05T09:23:39.769Z,1.70
2023-04-05T09:26:19.634Z,2.42
2023-04-05T09:28:51.284Z,2.50
2023-04-05T09:31:32.699Z,1.90
2023-04-05T09:34:02.194Z,3.42
2023-04-05T09:36:32.944Z,1.38
2023-04-05T09:39:11.187Z,1.17
2023-04-05T09:41:39.931Z,1.52
2023-04-05T09:44:09.992Z,1.38
2023-04-05T09:46:38.960Z,2.25
2023-04-05T09:49:10.243Z,1.52
2023-04-05T09:51:40.559Z,1.25
2023-04-05T09:54:13.066Z,1.38
2023-04-05T09:56:42.274Z,1.67
2023-04-05T09:59:12.990Z,1.10
2023-04-05T10:01:45.788Z,1.35
2023-04-05T10:04:14.639Z,1.60
2023-04-05T10:06:44.270Z,1.23
2023-04-05T10:09:15.248Z,1.50
2023-04-05T10:11:44.246Z,1.13
2023-04-05T10:14:14.341Z,1.30
2023-04-05T10:16:46.611Z,1.17
2023-04-05T10:19:18.566Z,1.40
2023-04-05T10:21:48.651Z,1.00
2023-04-05T10:24:20.873Z,1.27
2023-04-05T10:26:53.917Z,1.02
2023-04-05T10:29:27.043Z,1.08
2023-04-05T10:31:59.078Z,1.55
2023-04-05T10:34:32.139Z,1.20
2023-04-05T10:37:02.727Z,1.10
2023-04-05T10:39:32.055Z,1.60
2023-04-05T10:42:02.649Z,1.42
2023-04-05T10:44:38.490Z,1.20
2023-04-05T10:47:07.409Z,1.40
2023-04-05T10:49:39.551Z,1.48
2023-04-05T10:52:08.811Z,1.40
2023-04-05T10:54:38.594Z,1.38
2023-04-05T10:57:09.741Z,1.63
2023-04-05T10:59:43.245Z,1.30
2023-04-05T11:02:12.217Z,1.52
2023-04-05T11:04:42.751Z,1.30
2023-04-05T11:07:15.685Z,1.30
2023-04-05T11:09:55.430Z,1.88
2023-04-05T11:12:38.982Z,1.70
2023-04-05T11:15:22.614Z,1.50
2023-04-05T11:18:04.287Z,1.52
2023-04-05T11:20:42.740Z,1.50
2023-04-05T11:23:12.039Z,1.50
2023-04-05T11:25:41.526Z,1.40
2023-04-05T11:28:10.489Z,1.33
2023-04-05T11:30:48.720Z,1.45
2023-04-05T11:33:36.308Z,1.20
2023-04-05T11:36:06.972Z,1.52
2023-04-05T11:38:35.693Z,1.45
2023-04-05T11:41:08.225Z,1.60
2023-04-05T11:43:38.383Z,1.52
2023-04-05T11:46:07.129Z,1.52
2023-04-05T11:48:36.576Z,1.40
2023-04-05T11:51:09.887Z,1.55
2023-04-05T11:53:39.125Z,1.55
2023-04-05T11:56:12.906Z,1.48
2023-04-05T11:58:41.897Z,1.90
2023-04-05T12:01:11.261Z,2.00
2023-04-05T12:03:40.139Z,1.45
2023-04-05T12:06:10.309Z,2.05
2023-04-05T12:08:42.949Z,1.80
2023-04-05T12:11:12.367Z,3.25
2023-04-05T12:13:41.286Z,1.67
2023-04-05T12:16:10.842Z,1.20
2023-04-05T12:18:39.780Z,1.42
2023-04-05T12:21:10.381Z,1.50
2023-04-05T12:23:39.147Z,1.52
2023-04-05T12:26:08.885Z,1.55
2023-04-05T12:28:53.434Z,1.40
2023-04-05T12:31:37.155Z,1.50
2023-04-05T12:34:05.922Z,1.30
2023-04-05T12:36:36.233Z,1.00
2023-04-05T12:39:08.148Z,1.20
2023-04-05T12:41:37.496Z,1.50
2023-04-05T12:44:07.448Z,1.63
2023-04-05T12:46:42.640Z,1.58
2023-04-05T12:49:12.961Z,1.30
2023-04-05T12:51:44.962Z,1.48
2023-04-05T12:54:15.304Z,1.90
2023-04-05T12:56:44.078Z,1.25
2023-04-05T12:59:12.867Z,1.60
2023-04-05T13:01:41.639Z,1.58
2023-04-05T13:04:16.153Z,1.20
2023-04-05T13:06:47.807Z,1.67
2023-04-05T13:09:17.257Z,2.40
2023-04-05T13:11:46.027Z,1.60
2023-04-05T13:14:14.752Z,1.27
2023-04-05T13:16:43.455Z,1.38
2023-04-05T13:19:12.150Z,1.55
2023-04-05T13:21:40.819Z,1.35
2023-04-05T13:24:12.856Z,1.38
2023-04-05T13:26:41.954Z,1.42
2023-04-05T13:29:10.680Z,1.25
2023-04-05T13:31:40.897Z,1.40
2023-04-05T13:34:09.804Z,1.40
2023-04-05T13:36:38.448Z,1.45
2023-04-05T13:39:07.097Z,1.67
2023-04-05T13:41:37.298Z,2.17
2023-04-05T13:44:06.811Z,1.58
2023-04-05T13:46:35.814Z,2.00
2023-04-05T13:49:04.738Z,1.83
2023-04-05T13:51:34.541Z,1.70
2023-04-05T13:54:03.342Z,1.23
2023-04-05T13:56:31.975Z,1.60
2023-04-05T13:59:02.120Z,1.40
2023-04-05T14:01:30.963Z,1.30
2023-04-05T14:03:59.676Z,1.30
2023-04-05T14:06:28.579Z,1.73
2023-04-05T14:08:57.334Z,1.30
2023-04-05T14:11:26.402Z,1.45
2023-04-05T14:13:55.083Z,1.30
2023-04-05T14:16:25.522Z,1.50
2023-04-05T14:18:54.353Z,1.60
2023-04-05T14:21:23.201Z,1.50
2023-04-05T14:23:56.763Z,1.67
2023-04-05T14:26:26.838Z,1.40
2023-04-05T14:28:56.106Z,1.67
2023-04-05T14:31:26.491Z,1.50
2023-04-05T14:33:55.400Z,1.52
2023-04-05T14:36:24.153Z,1.60
2023-04-05T14:38:52.945Z,1.75
2023-04-05T14:41:21.766Z,1.63
2023-04-05T14:43:50.780Z,1.80
2023-04-05T14:46:19.645Z,1.60
2023-04-05T14:48:49.866Z,1.60
2023-04-05T14:51:18.724Z,1.45
2023-04-05T14:53:47.576Z,1.30
2023-04-05T14:56:16.388Z,1.45
2023-04-05T14:58:45.218Z,1.58
2023-04-05T15:01:14.745Z,2.35
2023-04-05T15:03:43.721Z,1.80
2023-04-05T15:06:14.002Z,2.42
2023-04-05T15:08:42.800Z,2.33
2023-04-05T15:11:11.534Z,2.10
2023-04-05T15:13:40.350Z,2.30
2023-04-05T15:16:09.544Z,2.22
2023-04-05T15:18:38.742Z,2.25
2023-04-05T15:21:07.841Z,1.85
2023-04-05T15:23:40.587Z,1.55
2023-04-05T15:26:09.422Z,1.52
2023-04-05T15:28:38.220Z,1.40
2023-04-05T15:31:07.092Z,1.98
2023-04-05T15:33:35.989Z,1.52
2023-04-05T15:36:05.022Z,1.70
2023-04-05T15:38:33.916Z,1.90
2023-04-05T15:41:04.185Z,1.60
2023-04-05T15:43:34.104Z,1.83
2023-04-05T15:46:04.938Z,1.80
2023-04-05T15:48:33.901Z,2.00
2023-04-05T15:51:02.708Z,1.83
2023-04-05T15:53:31.487Z,1.70
2023-04-05T15:56:00.656Z,1.77
2023-04-05T15:58:30.919Z,2.15
2023-04-05T16:00:59.790Z,1.70
2023-04-05T16:03:28.868Z,1.90
2023-04-05T16:05:58.145Z,1.90
2023-04-05T16:08:27.091Z,2.05
2023-04-05T16:10:55.940Z,2.13
2023-04-05T16:13:24.706Z,1.90
2023-04-05T16:15:54.888Z,2.03
2023-04-05T16:18:24.318Z,1.88
2023-04-05T16:20:53.178Z,2.60
2023-04-05T16:23:22.136Z,2.08
2023-04-05T16:25:50.864Z,3.58
2023-04-05T16:28:19.582Z,3.42
2023-04-05T16:30:48.474Z,2.58
2023-04-05T16:33:18.672Z,4.05
2023-04-05T16:35:47.637Z,3.28
2023-04-05T16:38:16.657Z,3.53
2023-04-05T16:40:45.485Z,3.58
2023-04-05T16:43:14.525Z,3.60
2023-04-05T16:45:44.071Z,1.92
2023-04-05T16:48:12.893Z,2.10
2023-04-05T16:50:42.999Z,3.22
2023-04-05T16:53:15.033Z,3.40
2023-04-05T16:55:43.990Z,3.67
2023-04-05T16:58:12.949Z,4.25
2023-04-05T17:00:41.755Z,4.22
2023-04-05T17:03:10.618Z,3.03
2023-04-05T17:05:39.866Z,2.28
2023-04-05T17:08:10.326Z,1.90
2023-04-05T17:10:39.333Z,2.22
2023-04-05T17:13:08.192Z,2.40
2023-04-05T17:15:36.914Z,2.33
2023-04-05T17:18:06.183Z,1.90
2023-04-05T17:20:35.117Z,2.88
2023-04-05T17:23:03.989Z,2.42
2023-04-05T17:25:34.184Z,4.00
2023-04-05T17:28:03.227Z,2.63
2023-04-05T17:30:32.904Z,2.65
2023-04-05T17:33:01.789Z,1.65
2023-04-05T17:35:31.194Z,1.48
2023-04-05T17:38:00.175Z,2.13
2023-04-05T17:40:29.133Z,2.08
2023-04-05T17:42:59.661Z,1.75
2023-04-05T17:45:28.760Z,2.03
2023-04-05T17:47:57.961Z,2.40
2023-04-05T17:50:27.489Z,2.65
2023-04-05T17:52:56.710Z,2.40
2023-04-05T17:55:26.282Z,2.03
2023-04-05T17:57:55.117Z,2.70
2023-04-05T18:00:25.796Z,2.20
2023-04-05T18:02:54.892Z,2.50
2023-04-05T18:05:25.984Z,3.60
2023-04-05T18:07:54.879Z,3.20
2023-04-05T18:10:24.224Z,2.25
2023-04-05T18:12:53.030Z,2.20
2023-04-05T18:15:21.972Z,2.53
2023-04-05T18:17:52.149Z,3.45
2023-04-05T18:20:20.949Z,2.42
2023-04-05T18:22:49.686Z,2.83
2023-04-05T18:25:21.393Z,2.47
2023-04-05T18:27:50.668Z,2.38
2023-04-05T18:30:19.458Z,2.15
2023-04-05T18:32:48.269Z,2.42
2023-04-05T18:35:18.362Z,2.30
2023-04-05T18:37:47.108Z,2.22
2023-04-05T18:40:15.959Z,2.40
2023-04-05T18:42:45.393Z,2.00
2023-04-05T18:45:14.313Z,2.10
2023-04-05T18:47:43.141Z,2.30
2023-04-05T18:50:12.388Z,2.42
2023-04-05T18:52:42.678Z,2.22
2023-04-05T18:55:11.790Z,2.20
2023-04-05T18:57:40.613Z,2.40
2023-04-05T19:00:10.134Z,2.00
2023-04-05T19:02:39.062Z,2.58
2023-04-05T19:05:08.440Z,2.38
2023-04-05T19:07:37.269Z,2.00
2023-04-05T19:10:08.281Z,2.15
2023-04-05T19:12:52.036Z,6.97
2023-04-05T19:15:21.085Z,15.38
2023-04-05T19:17:49.905Z,4.45
2023-04-05T19:20:18.828Z,2.75
2023-04-05T19:22:47.618Z,3.22
2023-04-05T19:25:17.935Z,4.10
2023-04-05T19:27:46.693Z,3.72
2023-04-05T19:30:15.537Z,3.50
2023-04-05T19:32:44.463Z,2.80
2023-04-05T19:35:13.203Z,2.00
2023-04-05T19:37:41.932Z,1.83
2023-04-05T19:40:12.354Z,1.95
2023-04-05T19:42:47.516Z,1.80
2023-04-05T19:45:21.435Z,2.67
2023-04-05T19:47:50.861Z,2.50
2023-04-05T19:50:43.579Z,2.35
2023-04-05T19:53:12.338Z,2.05
2023-04-05T19:55:41.463Z,1.90
2023-04-05T19:58:12.145Z,1.90
2023-04-05T20:00:43.397Z,2.10
2023-04-05T20:03:25.084Z,2.58
2023-04-05T20:05:58.955Z,2.35
2023-04-05T20:08:27.733Z,1.80
2023-04-05T20:10:56.564Z,2.15
2023-04-05T20:13:26.922Z,1.95
2023-04-05T20:15:56.283Z,2.15
2023-04-05T20:18:26.105Z,2.00
2023-04-05T20:20:55.440Z,2.13
2023-04-05T20:23:24.482Z,1.90
2023-04-05T20:25:53.379Z,1.92
2023-04-05T20:28:35.393Z,2.08
2023-04-05T20:31:06.814Z,1.92
2023-04-05T20:33:56.772Z,2.00
2023-04-05T20:36:31.471Z,2.00
2023-04-05T20:39:00.294Z,2.00
2023-04-05T20:41:29.536Z,2.00
2023-04-05T20:44:00.180Z,1.80
2023-04-05T20:46:28.952Z,1.60
2023-04-05T20:48:59.433Z,1.80
2023-04-05T20:51:28.165Z,1.70
2023-04-05T20:53:57.105Z,1.75
2023-04-05T20:56:25.951Z,1.98
2023-04-05T20:58:56.090Z,1.77
2023-04-05T21:01:27.184Z,1.70
2023-04-05T21:03:56.294Z,2.10
2023-04-05T21:06:25.081Z,2.00
2023-04-05T21:08:53.757Z,1.73
2023-04-05T21:11:22.733Z,1.98
2023-04-05T21:13:51.509Z,2.20
2023-04-05T21:16:20.499Z,2.10
2023-04-05T21:18:50.690Z,2.38
2023-04-05T21:21:19.568Z,1.90
2023-04-05T21:23:49.147Z,2.00
2023-04-05T21:26:17.963Z,1.80
2023-04-05T21:28:46.709Z,2.17
2023-04-05T21:31:15.651Z,1.55
2023-04-05T21:33:44.632Z,1.90
2023-04-05T21:36:15.021Z,1.60
2023-04-05T21:38:43.727Z,1.83
2023-04-05T21:41:12.431Z,1.92
2023-04-05T21:43:41.240Z,2.10
2023-04-05T21:46:10.099Z,2.03
2023-04-05T21:48:38.900Z,2.00
2023-04-05T21:51:07.696Z,2.20
2023-04-05T21:53:37.978Z,2.00
2023-04-05T21:56:07.011Z,2.28
2023-04-05T21:58:35.782Z,2.50
2023-04-05T22:01:04.546Z,1.98
2023-04-05T22:03:33.340Z,1.90
2023-04-05T22:06:03.198Z,1.70
2023-04-05T22:08:34.101Z,1.80
2023-04-05T22:11:04.430Z,1.90
2023-04-05T22:13:33.258Z,2.40
2023-04-05T22:16:02.030Z,1.90
2023-04-05T22:18:30.727Z,2.30
2023-04-05T22:20:59.475Z,2.20
2023-04-05T22:23:28.193Z,2.13
2023-04-05T22:25:57.047Z,2.25
2023-04-05T22:28:27.271Z,1.65
2023-04-05T22:30:56.085Z,1.52
2023-04-05T22:33:24.726Z,1.50
2023-04-05T22:35:53.618Z,1.65
2023-04-05T22:38:22.479Z,2.00
2023-04-05T22:40:51.301Z,1.50
2023-04-05T22:43:20.101Z,1.40
2023-04-05T22:45:52.141Z,1.63
2023-04-05T22:48:21.285Z,1.70
2023-04-05T22:50:51.411Z,2.05
2023-04-05T22:53:20.313Z,1.73
2023-04-05T22:55:49.018Z,1.30
2023-04-05T22:58:19.562Z,1.70
2023-04-05T23:00:48.322Z,1.67
2023-04-05T23:03:18.443Z,1.55
2023-04-05T23:05:47.310Z,1.77
2023-04-05T23:08:16.102Z,1.80
2023-04-05T23:10:44.913Z,1.80
2023-04-05T23:13:13.629Z,1.50
2023-04-05T23:15:42.441Z,1.65
2023-04-05T23:18:11.278Z,1.73
2023-04-05T23:20:41.566Z,1.65
2023-04-05T23:23:10.399Z,1.60
2023-04-05T23:25:39.105Z,1.70
2023-04-05T23:28:08.108Z,1.63
2023-04-05T23:30:36.858Z,1.60
2023-04-05T23:33:05.585Z,1.40
2023-04-05T23:35:34.577Z,1.77
2023-04-05T23:38:04.840Z,1.58
2023-04-05T23:40:33.601Z,1.70
2023-04-05T23:43:02.407Z,1.60
2023-04-05T23:45:31.347Z,1.80
2023-04-05T23:48:00.189Z,1.95
2023-04-05T23:50:28.989Z,1.80
2023-04-05T23:52:58.042Z,2.08
2023-04-05T23:55:28.161Z,1.60
2023-04-05T23:57:57.970Z,2.10
